sensor_id;sensor_type;location;lat;lon;timestamp;P1;durP1;ratioP1;P2;durP2;ratioP2
34567;SDS011;20806;50.746;7.116;2022-10-17T00:01:06;0.60;;;0.60;;
34567;SDS011;20806;50.746;7.116;2022-10-17T00:03:33;0.50;;;0.50;;
34567;SDS011;20806;50.746;7.116;2022-10-17T00:06:03;0.60;;;0.60;;
34567;SDS011;20806;50.746;7.116;2022-10-17T00:08:29;0.80;;;0.80;;
34567;SDS011;20806;50.746;7.116;2022-10-17T00:11:00;0.80;;;0.65;;
34567;SDS011;20806;50.746;7.116;2022-10-17T00:13:26;0.70;;;0.60;;
34567;SDS011;20806;50.746;7.116;2022-10-17T00:15:52;0.63;;;0.63;;
34567;SDS011;20806;50.746;7.116;2022-10-17T00:18:18;0.65;;;0.65;;
34567;SDS011;20806;50.746;7.116;2022-10-17T00:20:44;1.20;;;0.60;;
34567;SDS011;20806;50.746;7.116;2022-10-17T00:23:10;0.57;;;0.50;;
34567;SDS011;20806;50.746;7.116;2022-10-17T00:25:37;0.50;;;0.50;;
34567;SDS011;20806;50.746;7.116;2022-10-17T00:28:04;0.50;;;0.50;;
34567;SDS011;20806;50.746;7.116;2022-10-17T00:30:30;0.65;;;0.65;;
34567;SDS011;20806;50.746;7.116;2022-10-17T00:32:56;0.60;;;0.60;;
34567;SDS011;20806;50.746;7.116;2022-10-17T00:35:23;0.50;;;0.50;;
34567;SDS011;20806;50.746;7.116;2022-10-17T00:37:48;0.47;;;0.47;;
34567;SDS011;20806;50.746;7.116;2022-10-17T00:40:15;0.50;;;0.50;;
34567;SDS011;20806;50.746;7.116;2022-10-17T00:42:41;0.82;;;0.60;;
34567;SDS011;20806;50.746;7.116;2022-10-17T00:45:12;0.65;;;0.52;;
34567;SDS011;20806;50.746;7.116;2022-10-17T00:47:38;0.50;;;0.50;;
34567;SDS011;20806;50.746;7.116;2022-10-17T00:50:04;0.50;;;0.50;;
34567;SDS011;20806;50.746;7.116;2022-10-17T00:52:31;0.65;;;0.50;;
34567;SDS011;20806;50.746;7.116;2022-10-17T00:55:00;0.50;;;0.50;;
34567;SDS011;20806;50.746;7.116;2022-10-17T00:57:27;0.50;;;0.50;;
34567;SDS011;20806;50.746;7.116;2022-10-17T00:59:55;0.50;;;0.50;;
34567;SDS011;20806;50.746;7.116;2022-10-17T01:02:22;0.50;;;0.50;;
34567;SDS011;20806;50.746;7.116;2022-10-17T01:04:49;0.67;;;0.60;;
34567;SDS011;20806;50.746;7.116;2022-10-17T01:07:18;0.70;;;0.70;;
34567;SDS011;20806;50.746;7.116;2022-10-17T01:09:44;0.70;;;0.70;;
34567;SDS011;20806;50.746;7.116;2022-10-17T01:17:09;0.60;;;0.60;;
34567;SDS011;20806;50.746;7.116;2022-10-17T01:19:45;0.65;;;0.65;;
34567;SDS011;20806;50.746;7.116;2022-10-17T01:32:37;0.50;;;0.40;;
34567;SDS011;20806;50.746;7.116;2022-10-17T01:35:11;0.50;;;0.50;;
34567;SDS011;20806;50.746;7.116;2022-10-17T01:37:46;0.50;;;0.50;;
34567;SDS011;20806;50.746;7.116;2022-10-17T01:40:20;0.50;;;0.50;;
34567;SDS011;20806;50.746;7.116;2022-10-17T01:42:52;2.33;;;0.57;;
34567;SDS011;20806;50.746;7.116;2022-10-17T01:48:06;0.60;;;0.60;;
34567;SDS011;20806;50.746;7.116;2022-10-17T01:50:35;0.65;;;0.65;;
34567;SDS011;20806;50.746;7.116;2022-10-17T01:53:13;0.68;;;0.68;;
34567;SDS011;20806;50.746;7.116;2022-10-17T01:55:40;0.77;;;0.77;;
34567;SDS011;20806;50.746;7.116;2022-10-17T01:58:11;0.60;;;0.60;;
34567;SDS011;20806;50.746;7.116;2022-10-17T02:00:38;0.70;;;0.70;;
34567;SDS011;20806;50.746;7.116;2022-10-17T02:03:07;1.60;;;0.77;;
34567;SDS011;20806;50.746;7.116;2022-10-17T02:05:35;0.70;;;0.70;;
34567;SDS011;20806;50.746;7.116;2022-10-17T02:08:02;1.05;;;0.90;;
34567;SDS011;20806;50.746;7.116;2022-10-17T02:10:43;0.95;;;0.85;;
34567;SDS011;20806;50.746;7.116;2022-10-17T02:20:52;1.00;;;1.00;;
34567;SDS011;20806;50.746;7.116;2022-10-17T02:24:10;1.00;;;1.00;;
34567;SDS011;20806;50.746;7.116;2022-10-17T02:26:11;1.15;;;1.00;;
34567;SDS011;20806;50.746;7.116;2022-10-17T02:31:24;1.30;;;1.00;;
34567;SDS011;20806;50.746;7.116;2022-10-17T02:33:53;1.20;;;1.10;;
34567;SDS011;20806;50.746;7.116;2022-10-17T02:36:22;0.90;;;0.80;;
34567;SDS011;20806;50.746;7.116;2022-10-17T02:38:50;1.60;;;1.08;;
34567;SDS011;20806;50.746;7.116;2022-10-17T02:41:17;0.90;;;0.90;;
34567;SDS011;20806;50.746;7.116;2022-10-17T02:43:44;1.20;;;1.10;;
34567;SDS011;20806;50.746;7.116;2022-10-17T02:46:13;1.03;;;1.00;;
34567;SDS011;20806;50.746;7.116;2022-10-17T02:48:52;1.30;;;1.20;;
34567;SDS011;20806;50.746;7.116;2022-10-17T02:51:28;1.03;;;1.00;;
34567;SDS011;20806;50.746;7.116;2022-10-17T02:54:58;1.08;;;1.00;;
34567;SDS011;20806;50.746;7.116;2022-10-17T02:56:54;2.05;;;1.10;;
34567;SDS011;20806;50.746;7.116;2022-10-17T02:59:22;1.10;;;1.10;;
34567;SDS011;20806;50.746;7.116;2022-10-17T03:01:49;1.08;;;1.00;;
34567;SDS011;20806;50.746;7.116;2022-10-17T03:04:16;1.00;;;1.00;;
34567;SDS011;20806;50.746;7.116;2022-10-17T03:06:43;1.75;;;1.00;;
34567;SDS011;20806;50.746;7.116;2022-10-17T03:09:09;1.08;;;0.98;;
34567;SDS011;20806;50.746;7.116;2022-10-17T03:11:35;1.10;;;1.00;;
34567;SDS011;20806;50.746;7.116;2022-10-17T03:14:01;1.20;;;1.10;;
34567;SDS011;20806;50.746;7.116;2022-10-17T03:16:27;1.17;;;1.07;;
34567;SDS011;20806;50.746;7.116;2022-10-17T03:18:53;1.10;;;1.00;;
34567;SDS011;20806;50.746;7.116;2022-10-17T03:21:20;1.30;;;1.20;;
34567;SDS011;20806;50.746;7.116;2022-10-17T03:23:46;1.35;;;1.25;;
34567;SDS011;20806;50.746;7.116;2022-10-17T03:26:12;1.70;;;1.20;;
34567;SDS011;20806;50.746;7.116;2022-10-17T03:28:38;1.43;;;1.33;;
34567;SDS011;20806;50.746;7.116;2022-10-17T03:31:12;1.20;;;1.10;;
34567;SDS011;20806;50.746;7.116;2022-10-17T03:33:39;1.10;;;1.10;;
34567;SDS011;20806;50.746;7.116;2022-10-17T03:36:09;1.27;;;1.20;;
34567;SDS011;20806;50.746;7.116;2022-10-17T03:38:35;1.67;;;1.20;;
34567;SDS011;20806;50.746;7.116;2022-10-17T03:41:02;1.63;;;1.33;;
34567;SDS011;20806;50.746;7.116;2022-10-17T03:43:28;1.40;;;1.30;;
34567;SDS011;20806;50.746;7.116;2022-10-17T03:45:55;1.30;;;1.20;;
34567;SDS011;20806;50.746;7.116;2022-10-17T03:48:22;1.90;;;1.35;;
34567;SDS011;20806;50.746;7.116;2022-10-17T03:50:48;1.30;;;1.17;;
34567;SDS011;20806;50.746;7.116;2022-10-17T03:53:14;1.43;;;1.33;;
34567;SDS011;20806;50.746;7.116;2022-10-17T03:55:41;1.35;;;1.25;;
34567;SDS011;20806;50.746;7.116;2022-10-17T03:58:07;1.38;;;1.27;;
34567;SDS011;20806;50.746;7.116;2022-10-17T04:00:34;1.90;;;1.20;;
34567;SDS011;20806;50.746;7.116;2022-10-17T04:03:01;1.50;;;1.40;;
34567;SDS011;20806;50.746;7.116;2022-10-17T04:05:27;1.60;;;1.50;;
34567;SDS011;20806;50.746;7.116;2022-10-17T04:07:53;1.40;;;1.30;;
34567;SDS011;20806;50.746;7.116;2022-10-17T04:10:19;1.33;;;1.23;;
34567;SDS011;20806;50.746;7.116;2022-10-17T04:12:45;1.20;;;1.10;;
34567;SDS011;20806;50.746;7.116;2022-10-17T04:15:11;1.38;;;1.10;;
34567;SDS011;20806;50.746;7.116;2022-10-17T04:17:37;1.30;;;1.20;;
34567;SDS011;20806;50.746;7.116;2022-10-17T04:20:06;1.20;;;1.10;;
34567;SDS011;20806;50.746;7.116;2022-10-17T04:22:32;1.30;;;1.20;;
34567;SDS011;20806;50.746;7.116;2022-10-17T04:24:58;1.55;;;1.20;;
34567;SDS011;20806;50.746;7.116;2022-10-17T04:27:24;1.75;;;1.30;;
34567;SDS011;20806;50.746;7.116;2022-10-17T04:29:50;1.55;;;0.90;;
34567;SDS011;20806;50.746;7.116;2022-10-17T04:32:16;1.30;;;1.20;;
34567;SDS011;20806;50.746;7.116;2022-10-17T04:34:42;1.20;;;1.10;;
34567;SDS011;20806;50.746;7.116;2022-10-17T04:37:08;1.25;;;1.15;;
34567;SDS011;20806;50.746;7.116;2022-10-17T04:39:34;1.30;;;1.20;;
34567;SDS011;20806;50.746;7.116;2022-10-17T04:42:01;1.00;;;0.90;;
34567;SDS011;20806;50.746;7.116;2022-10-17T04:44:27;1.15;;;1.15;;
34567;SDS011;20806;50.746;7.116;2022-10-17T04:46:54;1.10;;;1.10;;
34567;SDS011;20806;50.746;7.116;2022-10-17T04:49:20;1.00;;;1.00;;
34567;SDS011;20806;50.746;7.116;2022-10-17T04:51:46;1.23;;;1.13;;
34567;SDS011;20806;50.746;7.116;2022-10-17T04:54:12;1.27;;;1.02;;
34567;SDS011;20806;50.746;7.116;2022-10-17T04:56:38;1.20;;;1.00;;
34567;SDS011;20806;50.746;7.116;2022-10-17T04:59:04;1.70;;;1.10;;
34567;SDS011;20806;50.746;7.116;2022-10-17T05:01:30;1.10;;;1.00;;
34567;SDS011;20806;50.746;7.116;2022-10-17T05:03:56;0.90;;;0.90;;
34567;SDS011;20806;50.746;7.116;2022-10-17T05:06:23;0.90;;;0.90;;
34567;SDS011;20806;50.746;7.116;2022-10-17T05:08:49;1.00;;;1.00;;
34567;SDS011;20806;50.746;7.116;2022-10-17T05:11:16;0.93;;;0.93;;
34567;SDS011;20806;50.746;7.116;2022-10-17T05:13:43;0.90;;;0.90;;
34567;SDS011;20806;50.746;7.116;2022-10-17T05:16:09;1.10;;;1.00;;
34567;SDS011;20806;50.746;7.116;2022-10-17T05:18:35;1.60;;;1.20;;
34567;SDS011;20806;50.746;7.116;2022-10-17T05:21:02;1.40;;;1.02;;
34567;SDS011;20806;50.746;7.116;2022-10-17T05:23:28;0.90;;;0.90;;
34567;SDS011;20806;50.746;7.116;2022-10-17T05:25:55;1.45;;;1.02;;
34567;SDS011;20806;50.746;7.116;2022-10-17T05:28:21;1.45;;;1.00;;
34567;SDS011;20806;50.746;7.116;2022-10-17T05:30:47;1.10;;;0.90;;
34567;SDS011;20806;50.746;7.116;2022-10-17T05:33:13;0.82;;;0.82;;
34567;SDS011;20806;50.746;7.116;2022-10-17T05:35:39;1.70;;;1.00;;
34567;SDS011;20806;50.746;7.116;2022-10-17T05:38:05;0.90;;;0.90;;
34567;SDS011;20806;50.746;7.116;2022-10-17T05:40:32;0.90;;;0.90;;
34567;SDS011;20806;50.746;7.116;2022-10-17T05:42:58;0.80;;;0.80;;
34567;SDS011;20806;50.746;7.116;2022-10-17T05:45:24;0.80;;;0.80;;
34567;SDS011;20806;50.746;7.116;2022-10-17T05:47:50;0.80;;;0.80;;
34567;SDS011;20806;50.746;7.116;2022-10-17T05:50:16;0.70;;;0.70;;
34567;SDS011;20806;50.746;7.116;2022-10-17T05:52:45;0.70;;;0.70;;
34567;SDS011;20806;50.746;7.116;2022-10-17T05:55:11;0.90;;;0.90;;
34567;SDS011;20806;50.746;7.116;2022-10-17T05:57:37;1.05;;;0.80;;
34567;SDS011;20806;50.746;7.116;2022-10-17T06:00:04;0.70;;;0.70;;
34567;SDS011;20806;50.746;7.116;2022-10-17T06:02:30;0.97;;;0.90;;
34567;SDS011;20806;50.746;7.116;2022-10-17T06:04:56;0.75;;;0.75;;
34567;SDS011;20806;50.746;7.116;2022-10-17T06:07:22;0.80;;;0.80;;
34567;SDS011;20806;50.746;7.116;2022-10-17T06:09:48;0.70;;;0.70;;
34567;SDS011;20806;50.746;7.116;2022-10-17T06:12:14;0.82;;;0.60;;
34567;SDS011;20806;50.746;7.116;2022-10-17T06:14:40;0.60;;;0.60;;
34567;SDS011;20806;50.746;7.116;2022-10-17T06:17:06;0.60;;;0.60;;
34567;SDS011;20806;50.746;7.116;2022-10-17T06:19:32;0.60;;;0.60;;
34567;SDS011;20806;50.746;7.116;2022-10-17T06:21:58;0.50;;;0.50;;
34567;SDS011;20806;50.746;7.116;2022-10-17T06:24:24;0.70;;;0.70;;
34567;SDS011;20806;50.746;7.116;2022-10-17T06:26:50;0.60;;;0.60;;
34567;SDS011;20806;50.746;7.116;2022-10-17T06:29:16;0.70;;;0.60;;
34567;SDS011;20806;50.746;7.116;2022-10-17T06:31:42;2.10;;;0.70;;
34567;SDS011;20806;50.746;7.116;2022-10-17T06:34:08;0.57;;;0.57;;
34567;SDS011;20806;50.746;7.116;2022-10-17T06:36:34;0.63;;;0.60;;
34567;SDS011;20806;50.746;7.116;2022-10-17T06:39:00;0.60;;;0.60;;
34567;SDS011;20806;50.746;7.116;2022-10-17T06:41:26;0.70;;;0.70;;
34567;SDS011;20806;50.746;7.116;2022-10-17T06:43:52;0.60;;;0.60;;
34567;SDS011;20806;50.746;7.116;2022-10-17T06:46:20;0.50;;;0.50;;
34567;SDS011;20806;50.746;7.116;2022-10-17T06:48:46;1.23;;;1.00;;
34567;SDS011;20806;50.746;7.116;2022-10-17T06:51:12;0.70;;;0.70;;
34567;SDS011;20806;50.746;7.116;2022-10-17T06:53:38;0.82;;;0.73;;
34567;SDS011;20806;50.746;7.116;2022-10-17T06:56:05;1.00;;;0.90;;
34567;SDS011;20806;50.746;7.116;2022-10-17T06:58:32;0.80;;;0.70;;
34567;SDS011;20806;50.746;7.116;2022-10-17T07:00:59;0.60;;;0.60;;
34567;SDS011;20806;50.746;7.116;2022-10-17T07:03:25;0.60;;;0.60;;
34567;SDS011;20806;50.746;7.116;2022-10-17T07:05:52;0.80;;;0.60;;
34567;SDS011;20806;50.746;7.116;2022-10-17T07:08:18;0.90;;;0.60;;
34567;SDS011;20806;50.746;7.116;2022-10-17T07:10:44;0.85;;;0.70;;
34567;SDS011;20806;50.746;7.116;2022-10-17T07:13:10;0.60;;;0.60;;
34567;SDS011;20806;50.746;7.116;2022-10-17T07:15:37;0.60;;;0.60;;
34567;SDS011;20806;50.746;7.116;2022-10-17T07:18:03;0.60;;;0.60;;
34567;SDS011;20806;50.746;7.116;2022-10-17T07:20:29;0.60;;;0.60;;
34567;SDS011;20806;50.746;7.116;2022-10-17T07:22:55;0.95;;;0.70;;
34567;SDS011;20806;50.746;7.116;2022-10-17T07:25:21;1.83;;;0.77;;
34567;SDS011;20806;50.746;7.116;2022-10-17T07:27:48;0.50;;;0.50;;
34567;SDS011;20806;50.746;7.116;2022-10-17T07:30:14;0.65;;;0.65;;
34567;SDS011;20806;50.746;7.116;2022-10-17T07:32:41;0.70;;;0.70;;
34567;SDS011;20806;50.746;7.116;2022-10-17T07:35:07;0.70;;;0.70;;
34567;SDS011;20806;50.746;7.116;2022-10-17T07:37:33;0.68;;;0.68;;
34567;SDS011;20806;50.746;7.116;2022-10-17T07:40:00;0.60;;;0.60;;
34567;SDS011;20806;50.746;7.116;2022-10-17T07:42:26;0.60;;;0.60;;
34567;SDS011;20806;50.746;7.116;2022-10-17T07:44:52;0.57;;;0.57;;
34567;SDS011;20806;50.746;7.116;2022-10-17T07:47:18;0.70;;;0.70;;
34567;SDS011;20806;50.746;7.116;2022-10-17T07:49:45;0.65;;;0.65;;
34567;SDS011;20806;50.746;7.116;2022-10-17T07:52:14;0.70;;;0.70;;
34567;SDS011;20806;50.746;7.116;2022-10-17T07:54:41;0.80;;;0.80;;
34567;SDS011;20806;50.746;7.116;2022-10-17T07:57:07;0.68;;;0.68;;
34567;SDS011;20806;50.746;7.116;2022-10-17T07:59:33;0.73;;;0.73;;
34567;SDS011;20806;50.746;7.116;2022-10-17T08:02:00;0.60;;;0.60;;
34567;SDS011;20806;50.746;7.116;2022-10-17T08:04:26;1.00;;;0.70;;
34567;SDS011;20806;50.746;7.116;2022-10-17T08:06:52;0.47;;;0.45;;
34567;SDS011;20806;50.746;7.116;2022-10-17T08:09:18;0.77;;;0.68;;
34567;SDS011;20806;50.746;7.116;2022-10-17T08:11:45;0.70;;;0.70;;
34567;SDS011;20806;50.746;7.116;2022-10-17T08:14:11;0.70;;;0.70;;
34567;SDS011;20806;50.746;7.116;2022-10-17T08:16:37;1.30;;;0.77;;
34567;SDS011;20806;50.746;7.116;2022-10-17T08:19:04;0.70;;;0.70;;
34567;SDS011;20806;50.746;7.116;2022-10-17T08:21:30;0.60;;;0.60;;
34567;SDS011;20806;50.746;7.116;2022-10-17T08:23:56;0.60;;;0.60;;
34567;SDS011;20806;50.746;7.116;2022-10-17T08:26:22;0.60;;;0.60;;
34567;SDS011;20806;50.746;7.116;2022-10-17T08:28:48;0.80;;;0.70;;
34567;SDS011;20806;50.746;7.116;2022-10-17T08:31:15;0.60;;;0.57;;
34567;SDS011;20806;50.746;7.116;2022-10-17T08:33:45;1.10;;;0.70;;
34567;SDS011;20806;50.746;7.116;2022-10-17T08:36:13;0.70;;;0.70;;
34567;SDS011;20806;50.746;7.116;2022-10-17T08:38:39;0.70;;;0.70;;
34567;SDS011;20806;50.746;7.116;2022-10-17T08:46:05;0.77;;;0.70;;
34567;SDS011;20806;50.746;7.116;2022-10-17T08:48:37;0.93;;;0.90;;
34567;SDS011;20806;50.746;7.116;2022-10-17T08:51:12;0.88;;;0.88;;
34567;SDS011;20806;50.746;7.116;2022-10-17T08:53:42;0.80;;;0.80;;
34567;SDS011;20806;50.746;7.116;2022-10-17T08:56:23;1.10;;;0.73;;
34567;SDS011;20806;50.746;7.116;2022-10-17T08:58:49;0.73;;;0.70;;
34567;SDS011;20806;50.746;7.116;2022-10-17T09:01:23;1.27;;;0.75;;
34567;SDS011;20806;50.746;7.116;2022-10-17T09:06:26;0.87;;;0.87;;
34567;SDS011;20806;50.746;7.116;2022-10-17T09:19:34;1.30;;;0.70;;
34567;SDS011;20806;50.746;7.116;2022-10-17T09:22:22;0.70;;;0.70;;
34567;SDS011;20806;50.746;7.116;2022-10-17T09:25:01;0.63;;;0.63;;
34567;SDS011;20806;50.746;7.116;2022-10-17T09:27:33;0.80;;;0.80;;
34567;SDS011;20806;50.746;7.116;2022-10-17T09:30:20;0.88;;;0.80;;
34567;SDS011;20806;50.746;7.116;2022-10-17T09:32:46;0.70;;;0.70;;
34567;SDS011;20806;50.746;7.116;2022-10-17T09:35:13;0.70;;;0.70;;
34567;SDS011;20806;50.746;7.116;2022-10-17T09:37:39;0.85;;;0.70;;
34567;SDS011;20806;50.746;7.116;2022-10-17T09:40:06;0.80;;;0.80;;
34567;SDS011;20806;50.746;7.116;2022-10-17T09:42:33;0.60;;;0.60;;
34567;SDS011;20806;50.746;7.116;2022-10-17T09:47:39;0.60;;;0.60;;
34567;SDS011;20806;50.746;7.116;2022-10-17T09:50:29;0.65;;;0.63;;
34567;SDS011;20806;50.746;7.116;2022-10-17T09:52:54;0.63;;;0.63;;
34567;SDS011;20806;50.746;7.116;2022-10-17T09:55:32;0.68;;;0.68;;
34567;SDS011;20806;50.746;7.116;2022-10-17T09:58:03;0.85;;;0.70;;
34567;SDS011;20806;50.746;7.116;2022-10-17T10:00:31;0.63;;;0.60;;
34567;SDS011;20806;50.746;7.116;2022-10-17T10:03:30;0.60;;;0.60;;
34567;SDS011;20806;50.746;7.116;2022-10-17T10:06:31;0.50;;;0.50;;
34567;SDS011;20806;50.746;7.116;2022-10-17T10:08:54;0.70;;;0.70;;
34567;SDS011;20806;50.746;7.116;2022-10-17T10:14:11;0.45;;;0.45;;
34567;SDS011;20806;50.746;7.116;2022-10-17T10:16:44;0.50;;;0.40;;
34567;SDS011;20806;50.746;7.116;2022-10-17T10:21:56;0.77;;;0.50;;
34567;SDS011;20806;50.746;7.116;2022-10-17T10:24:23;0.50;;;0.50;;
34567;SDS011;20806;50.746;7.116;2022-10-17T10:26:50;0.60;;;0.52;;
34567;SDS011;20806;50.746;7.116;2022-10-17T10:31:46;0.50;;;0.50;;
34567;SDS011;20806;50.746;7.116;2022-10-17T10:34:19;0.90;;;0.40;;
34567;SDS011;20806;50.746;7.116;2022-10-17T10:39:23;0.45;;;0.40;;
34567;SDS011;20806;50.746;7.116;2022-10-17T10:41:50;0.50;;;0.50;;
34567;SDS011;20806;50.746;7.116;2022-10-17T10:44:16;0.80;;;0.40;;
34567;SDS011;20806;50.746;7.116;2022-10-17T10:46:44;0.40;;;0.40;;
34567;SDS011;20806;50.746;7.116;2022-10-17T10:49:29;0.50;;;0.50;;
34567;SDS011;20806;50.746;7.116;2022-10-17T10:51:56;0.52;;;0.52;;
34567;SDS011;20806;50.746;7.116;2022-10-17T10:54:24;0.43;;;0.43;;
34567;SDS011;20806;50.746;7.116;2022-10-17T10:56:55;0.90;;;0.57;;
34567;SDS011;20806;50.746;7.116;2022-10-17T10:59:22;0.50;;;0.50;;
34567;SDS011;20806;50.746;7.116;2022-10-17T11:04:37;0.47;;;0.47;;
34567;SDS011;20806;50.746;7.116;2022-10-17T11:07:08;0.50;;;0.50;;
34567;SDS011;20806;50.746;7.116;2022-10-17T11:09:45;1.05;;;0.68;;
34567;SDS011;20806;50.746;7.116;2022-10-17T11:12:21;2.42;;;0.80;;
34567;SDS011;20806;50.746;7.116;2022-10-17T11:14:57;1.20;;;0.80;;
34567;SDS011;20806;50.746;7.116;2022-10-17T11:22:42;0.50;;;0.50;;
34567;SDS011;20806;50.746;7.116;2022-10-17T11:25:28;0.80;;;0.60;;
34567;SDS011;20806;50.746;7.116;2022-10-17T11:27:55;0.50;;;0.50;;
34567;SDS011;20806;50.746;7.116;2022-10-17T11:30:22;0.50;;;0.50;;
34567;SDS011;20806;50.746;7.116;2022-10-17T11:32:53;0.50;;;0.50;;
34567;SDS011;20806;50.746;7.116;2022-10-17T11:35:24;0.82;;;0.60;;
34567;SDS011;20806;50.746;7.116;2022-10-17T11:37:57;0.60;;;0.50;;
34567;SDS011;20806;50.746;7.116;2022-10-17T11:40:29;0.50;;;0.50;;
34567;SDS011;20806;50.746;7.116;2022-10-17T11:42:58;0.68;;;0.68;;
34567;SDS011;20806;50.746;7.116;2022-10-17T11:45:25;0.60;;;0.60;;
34567;SDS011;20806;50.746;7.116;2022-10-17T11:48:03;0.65;;;0.65;;
34567;SDS011;20806;50.746;7.116;2022-10-17T11:50:34;0.57;;;0.57;;
34567;SDS011;20806;50.746;7.116;2022-10-17T11:53:03;1.20;;;0.65;;
34567;SDS011;20806;50.746;7.116;2022-10-17T11:55:30;0.73;;;0.50;;
34567;SDS011;20806;50.746;7.116;2022-10-17T11:58:00;0.68;;;0.68;;
34567;SDS011;20806;50.746;7.116;2022-10-17T12:00:30;0.90;;;0.60;;
34567;SDS011;20806;50.746;7.116;2022-10-17T12:08:28;0.50;;;0.50;;
34567;SDS011;20806;50.746;7.116;2022-10-17T12:11:00;0.60;;;0.50;;
34567;SDS011;20806;50.746;7.116;2022-10-17T12:15:54;0.80;;;0.50;;
34567;SDS011;20806;50.746;7.116;2022-10-17T12:18:24;0.60;;;0.60;;
34567;SDS011;20806;50.746;7.116;2022-10-17T12:20:56;1.20;;;0.60;;
34567;SDS011;20806;50.746;7.116;2022-10-17T12:23:26;0.60;;;0.60;;
34567;SDS011;20806;50.746;7.116;2022-10-17T12:25:54;0.50;;;0.50;;
34567;SDS011;20806;50.746;7.116;2022-10-17T12:30:59;0.40;;;0.40;;
34567;SDS011;20806;50.746;7.116;2022-10-17T12:38:39;0.30;;;0.30;;
34567;SDS011;20806;50.746;7.116;2022-10-17T12:41:05;0.73;;;0.40;;
34567;SDS011;20806;50.746;7.116;2022-10-17T12:43:36;0.73;;;0.50;;
34567;SDS011;20806;50.746;7.116;2022-10-17T12:46:03;0.45;;;0.45;;
34567;SDS011;20806;50.746;7.116;2022-10-17T12:50:59;0.60;;;0.60;;
34567;SDS011;20806;50.746;7.116;2022-10-17T12:53:27;0.73;;;0.60;;
34567;SDS011;20806;50.746;7.116;2022-10-17T12:55:58;0.53;;;0.53;;
34567;SDS011;20806;50.746;7.116;2022-10-17T12:58:24;1.00;;;0.50;;
34567;SDS011;20806;50.746;7.116;2022-10-17T13:00:54;0.50;;;0.50;;
34567;SDS011;20806;50.746;7.116;2022-10-17T13:03:22;0.50;;;0.40;;
34567;SDS011;20806;50.746;7.116;2022-10-17T13:05:50;1.00;;;0.40;;
34567;SDS011;20806;50.746;7.116;2022-10-17T13:10:54;0.45;;;0.45;;
34567;SDS011;20806;50.746;7.116;2022-10-17T13:15:51;0.40;;;0.30;;
34567;SDS011;20806;50.746;7.116;2022-10-17T13:18:19;0.40;;;0.40;;
34567;SDS011;20806;50.746;7.116;2022-10-17T13:20:53;0.60;;;0.40;;
34567;SDS011;20806;50.746;7.116;2022-10-17T13:23:23;0.50;;;0.50;;
34567;SDS011;20806;50.746;7.116;2022-10-17T13:28:33;0.50;;;0.40;;
34567;SDS011;20806;50.746;7.116;2022-10-17T13:30:59;0.40;;;0.40;;
34567;SDS011;20806;50.746;7.116;2022-10-17T13:33:27;0.40;;;0.40;;
34567;SDS011;20806;50.746;7.116;2022-10-17T13:35:54;0.55;;;0.40;;
34567;SDS011;20806;50.746;7.116;2022-10-17T13:38:22;0.40;;;0.40;;
34567;SDS011;20806;50.746;7.116;2022-10-17T13:40:49;0.43;;;0.43;;
34567;SDS011;20806;50.746;7.116;2022-10-17T13:43:16;0.95;;;0.60;;
34567;SDS011;20806;50.746;7.116;2022-10-17T13:45:52;0.57;;;0.57;;
34567;SDS011;20806;50.746;7.116;2022-10-17T13:48:29;0.60;;;0.60;;
34567;SDS011;20806;50.746;7.116;2022-10-17T13:50:56;0.40;;;0.40;;
34567;SDS011;20806;50.746;7.116;2022-10-17T13:53:30;0.38;;;0.38;;
34567;SDS011;20806;50.746;7.116;2022-10-17T13:58:23;1.60;;;0.40;;
34567;SDS011;20806;50.746;7.116;2022-10-17T14:00:49;0.60;;;0.57;;
34567;SDS011;20806;50.746;7.116;2022-10-17T14:03:18;0.60;;;0.50;;
34567;SDS011;20806;50.746;7.116;2022-10-17T14:05:57;0.90;;;0.40;;
34567;SDS011;20806;50.746;7.116;2022-10-17T14:08:24;0.50;;;0.40;;
34567;SDS011;20806;50.746;7.116;2022-10-17T14:10:50;0.68;;;0.50;;
34567;SDS011;20806;50.746;7.116;2022-10-17T14:15:46;0.63;;;0.63;;
34567;SDS011;20806;50.746;7.116;2022-10-17T14:18:13;0.50;;;0.50;;
34567;SDS011;20806;50.746;7.116;2022-10-17T14:20:45;0.50;;;0.47;;
34567;SDS011;20806;50.746;7.116;2022-10-17T14:23:31;0.68;;;0.65;;
34567;SDS011;20806;50.746;7.116;2022-10-17T14:28:39;0.60;;;0.60;;
34567;SDS011;20806;50.746;7.116;2022-10-17T14:31:09;0.73;;;0.70;;
34567;SDS011;20806;50.746;7.116;2022-10-17T14:33:37;1.13;;;0.60;;
34567;SDS011;20806;50.746;7.116;2022-10-17T14:36:07;1.30;;;0.57;;
34567;SDS011;20806;50.746;7.116;2022-10-17T14:38:33;1.23;;;0.57;;
34567;SDS011;20806;50.746;7.116;2022-10-17T14:41:13;1.20;;;0.50;;
34567;SDS011;20806;50.746;7.116;2022-10-17T14:43:39;0.63;;;0.60;;
34567;SDS011;20806;50.746;7.116;2022-10-17T14:46:06;0.90;;;0.40;;
34567;SDS011;20806;50.746;7.116;2022-10-17T14:48:38;0.35;;;0.35;;
34567;SDS011;20806;50.746;7.116;2022-10-17T14:51:11;0.50;;;0.50;;
34567;SDS011;20806;50.746;7.116;2022-10-17T14:53:41;0.95;;;0.50;;
34567;SDS011;20806;50.746;7.116;2022-10-17T14:56:27;0.60;;;0.50;;
34567;SDS011;20806;50.746;7.116;2022-10-17T14:58:53;0.80;;;0.47;;
34567;SDS011;20806;50.746;7.116;2022-10-17T15:01:19;0.80;;;0.50;;
34567;SDS011;20806;50.746;7.116;2022-10-17T15:03:45;0.77;;;0.45;;
34567;SDS011;20806;50.746;7.116;2022-10-17T15:06:19;0.70;;;0.50;;
34567;SDS011;20806;50.746;7.116;2022-10-17T15:08:45;0.98;;;0.43;;
34567;SDS011;20806;50.746;7.116;2022-10-17T15:11:11;0.60;;;0.38;;
34567;SDS011;20806;50.746;7.116;2022-10-17T15:13:37;0.30;;;0.30;;
34567;SDS011;20806;50.746;7.116;2022-10-17T15:18:48;0.40;;;0.30;;
34567;SDS011;20806;50.746;7.116;2022-10-17T15:21:16;0.30;;;0.30;;
34567;SDS011;20806;50.746;7.116;2022-10-17T15:23:42;0.30;;;0.30;;
34567;SDS011;20806;50.746;7.116;2022-10-17T15:26:15;0.32;;;0.30;;
34567;SDS011;20806;50.746;7.116;2022-10-17T15:28:41;1.42;;;0.30;;
34567;SDS011;20806;50.746;7.116;2022-10-17T15:31:09;0.90;;;0.30;;
34567;SDS011;20806;50.746;7.116;2022-10-17T15:33:35;0.75;;;0.30;;
34567;SDS011;20806;50.746;7.116;2022-10-17T15:36:01;0.30;;;0.20;;
34567;SDS011;20806;50.746;7.116;2022-10-17T15:38:28;0.30;;;0.30;;
34567;SDS011;20806;50.746;7.116;2022-10-17T15:40:54;0.30;;;0.30;;
34567;SDS011;20806;50.746;7.116;2022-10-17T15:43:20;0.30;;;0.20;;
34567;SDS011;20806;50.746;7.116;2022-10-17T15:45:46;0.32;;;0.30;;
34567;SDS011;20806;50.746;7.116;2022-10-17T15:48:17;0.40;;;0.30;;
34567;SDS011;20806;50.746;7.116;2022-10-17T15:50:43;0.33;;;0.20;;
34567;SDS011;20806;50.746;7.116;2022-10-17T15:53:10;0.50;;;0.32;;
34567;SDS011;20806;50.746;7.116;2022-10-17T15:55:36;0.35;;;0.32;;
34567;SDS011;20806;50.746;7.116;2022-10-17T15:58:02;0.37;;;0.37;;
34567;SDS011;20806;50.746;7.116;2022-10-17T16:00:28;0.52;;;0.30;;
34567;SDS011;20806;50.746;7.116;2022-10-17T16:02:54;0.30;;;0.30;;
34567;SDS011;20806;50.746;7.116;2022-10-17T16:05:22;0.25;;;0.20;;
34567;SDS011;20806;50.746;7.116;2022-10-17T16:07:52;0.50;;;0.40;;
34567;SDS011;20806;50.746;7.116;2022-10-17T16:10:19;0.80;;;0.40;;
34567;SDS011;20806;50.746;7.116;2022-10-17T16:12:45;0.30;;;0.30;;
34567;SDS011;20806;50.746;7.116;2022-10-17T16:15:14;0.40;;;0.40;;
34567;SDS011;20806;50.746;7.116;2022-10-17T16:17:41;0.30;;;0.30;;
34567;SDS011;20806;50.746;7.116;2022-10-17T16:20:08;0.40;;;0.40;;
34567;SDS011;20806;50.746;7.116;2022-10-17T16:22:34;0.30;;;0.30;;
34567;SDS011;20806;50.746;7.116;2022-10-17T16:25:01;1.10;;;0.50;;
34567;SDS011;20806;50.746;7.116;2022-10-17T16:27:33;0.60;;;0.32;;
34567;SDS011;20806;50.746;7.116;2022-10-17T16:30:00;0.50;;;0.40;;
34567;SDS011;20806;50.746;7.116;2022-10-17T16:32:26;0.60;;;0.40;;
34567;SDS011;20806;50.746;7.116;2022-10-17T16:34:52;1.00;;;0.40;;
34567;SDS011;20806;50.746;7.116;2022-10-17T16:37:18;0.30;;;0.30;;
34567;SDS011;20806;50.746;7.116;2022-10-17T16:39:44;0.40;;;0.30;;